• Join FlightAware (Why Join?)
  • Login
  • US Flag 
03:55PM EDT


 

Airport Tracker/Info


-or-


 

Live Flight TrackerFlight Track Log ✈ SWA3924 ✈ 24-Apr-2013 ✈ KLAX - KOAK

Flight Track Log - Related Links

Times and Time Zones

All times are in EDT time to prevent confusion due to time zone crossing. See the SWA3924 flight status page for this flight to view local times or setup timezone preferences in your user account.

Time Position Orientation Groundspeed Altitude Reporting Facility
EDT Latitude Longitude Course Direction KTS MPH feet Rate Location/Type
09:14PM 33.9333 -118.5667 256° West 276 318 4,600  Level Southern California TRACON
09:15PM 33.9697 -118.6728 292° West 309 356 8,500 1,860 Climbing Los Angeles Center
09:16PM 34.0519 -118.7000 345° North 306 352 9,000 240 Climbing Los Angeles Center
09:17PM 34.1064 -118.6581 33° Northeast 277 319 9,000 2,040 Level Los Angeles Center
09:18PM 34.1596 -118.6202 22° Northeast  Level FlightAware Approximate
09:18PM 34.2042 -118.6617 358° North 297 342 13,300  Level Los Angeles Center
09:19PM 34.2931 -118.6786 351° North 317 365 16,000 2,820 Climbing Los Angeles Center
09:20PM 34.3839 -118.6964 351° North 327 376 19,200 2,880 Climbing Los Angeles Center
09:21PM 34.4803 -118.7153 351° North 348 400 22,000 2,880 Climbing Los Angeles Center
09:22PM 34.5739 -118.7475 344° North 350 403 25,200 1,800 Climbing Los Angeles Center
09:23PM 34.6733 -118.7983 337° Northwest 390 449 25,800 1,020 Climbing Los Angeles Center
09:24PM 34.7864 -118.8550 338° Northwest 438 504 27,400 1,740 Climbing Los Angeles Center
09:25PM 34.8983 -118.9525 324° Northwest 467 537 29,400 2,040 Climbing Los Angeles Center
09:26PM 35.0000 -119.0528 321° Northwest 469 540 31,600 2,220 Climbing Los Angeles Center
09:27PM 35.1194 -119.1692 321° Northwest 461 531 34,000 900 Climbing Los Angeles Center
09:29PM 35.2556 -119.3050 321° Northwest 458 527 34,000  Level Oakland Center
09:30PM 35.3186 -119.3647 322° Northwest 458 527 34,000  Level Los Angeles Center
09:31PM 35.4178 -119.4636 321° Northwest 461 531 34,000  Level Los Angeles Center
09:31PM 35.4728 -119.5200 320° Northwest 459 528 34,000  Level Oakland Center
09:32PM 35.5703 -119.6153 322° Northwest 453 521 34,000  Level Oakland Center
09:33PM 35.6658 -119.7097 321° Northwest 447 514 34,000  Level Oakland Center
09:34PM 35.7600 -119.8036 321° Northwest 441 507 34,000  Level Oakland Center
09:35PM 35.8528 -119.8981 320° Northwest 438 504 34,000  Level Oakland Center
09:36PM 35.9464 -119.9911 321° Northwest 435 501 34,000  Level Oakland Center
09:37PM 36.0392 -120.0822 322° Northwest 431 496 34,000  Level Oakland Center
09:38PM 36.1481 -120.1939 320° Northwest 427 491 34,000  Level Oakland Center
09:39PM 36.2397 -120.2894 320° Northwest 431 496 34,000  Level Oakland Center
09:40PM 36.3322 -120.3833 321° Northwest 430 495 34,000 -360 Level Oakland Center
09:41PM 36.4244 -120.4778 321° Northwest 431 496 33,300 -1,740 Descending Oakland Center
09:42PM 36.5164 -120.5700 321° Northwest 428 493 30,500 -2,520 Descending Oakland Center
09:43PM 36.6044 -120.6653 319° Northwest 418 481 28,200 -2,220 Descending Oakland Center
09:44PM 36.6900 -120.7547 320° Northwest 403 464 26,000 -2,160 Descending Oakland Center
09:45PM 36.7722 -120.8397 320° Northwest 386 444 23,900 -2,100 Descending Oakland Center
09:46PM 36.8519 -120.9281 318° Northwest 374 430 21,700 -2,100 Descending Oakland Center
09:47PM 36.9258 -121.0158 316° Northwest 366 421 19,700 -2,040 Descending Oakland Center
09:48PM 37.0006 -121.1022 317° Northwest 365 420 17,600 -2,160 Descending Oakland Center
09:49PM 37.0764 -121.1908 317° Northwest 351 404 15,400 -2,220 Descending Oakland Center
09:50PM 37.1558 -121.2836 317° Northwest 344 396 13,200 -2,100 Descending Oakland Center
09:51PM 37.2244 -121.3631 317° Northwest 336 387 11,200 -1,500 Descending Oakland Center
09:52PM 37.2903 -121.4397 317° Northwest 324 373 10,200 -1,260 Descending Oakland Center
09:53PM 37.3542 -121.5125 318° Northwest 300 345 8,700 -1,380 Descending Oakland Center
09:54PM 37.4167 -121.5833 318° Northwest 285 328 7,500 -900 Descending Northern Cal TRACON
09:55PM 37.4667 -121.6500 313° West 274 315 7,000 -300 Descending Northern Cal TRACON
09:56PM 37.5000 -121.7333 297° West 279 321 7,000 -180 Level Northern Cal TRACON
09:57PM 37.5333 -121.8167 297° West 278 320 6,700 -720 Descending Northern Cal TRACON
09:58PM 37.5667 -121.9167 293° West 262 302 5,600 -1,200 Descending Northern Cal TRACON
09:59PM 37.5833 -121.9833 288° West 236 272 4,400 -840 Descending Northern Cal TRACON
10:00PM 37.6000 -122.0500 288° West 187 215 4,000 -900 Descending Northern Cal TRACON
10:01PM 37.6333 -122.1000 310° West 171 197 2,600 -1,260 Descending Northern Cal TRACON
10:02PM 37.6500 -122.1500 293° West 147 169 1,500 -960 Descending Northern Cal TRACON
10:04PM 37.6833 -122.1833 322° Northwest 135 155 700 8,340 Descending Northern Cal TRACON
10:05PM 37.7053 -122.2214 306° West 136 157 20,000 17,280 Climbing Oakland Center
10:07PM 37.7167 -122.2167 270° West  Level FlightAware Approximate